sensor_id;sensor_type;location;lat;lon;timestamp;P1;durP1;ratioP1;P2;durP2;ratioP2
25237;SDS011;13185;50.872;5.306;2023-03-12T00:01:08;7.37;;;4.47;;
25237;SDS011;13185;50.872;5.306;2023-03-12T00:03:35;11.15;;;3.72;;
25237;SDS011;13185;50.872;5.306;2023-03-12T00:06:01;7.63;;;4.03;;
25237;SDS011;13185;50.872;5.306;2023-03-12T00:08:27;18.10;;;4.63;;
25237;SDS011;13185;50.872;5.306;2023-03-12T00:10:53;8.27;;;4.10;;
25237;SDS011;13185;50.872;5.306;2023-03-12T00:13:19;8.30;;;3.90;;
25237;SDS011;13185;50.872;5.306;2023-03-12T00:15:44;7.93;;;3.90;;
25237;SDS011;13185;50.872;5.306;2023-03-12T00:18:09;7.03;;;3.80;;
25237;SDS011;13185;50.872;5.306;2023-03-12T00:20:35;8.50;;;3.63;;
25237;SDS011;13185;50.872;5.306;2023-03-12T00:23:00;9.27;;;4.30;;
25237;SDS011;13185;50.872;5.306;2023-03-12T00:25:26;6.63;;;3.80;;
25237;SDS011;13185;50.872;5.306;2023-03-12T00:27:52;10.27;;;4.00;;
25237;SDS011;13185;50.872;5.306;2023-03-12T00:30:17;8.97;;;4.00;;
25237;SDS011;13185;50.872;5.306;2023-03-12T00:32:43;9.13;;;3.50;;
25237;SDS011;13185;50.872;5.306;2023-03-12T00:35:09;10.23;;;3.70;;
25237;SDS011;13185;50.872;5.306;2023-03-12T00:37:35;7.27;;;3.60;;
25237;SDS011;13185;50.872;5.306;2023-03-12T00:40:01;7.77;;;3.50;;
25237;SDS011;13185;50.872;5.306;2023-03-12T00:42:29;6.70;;;3.50;;
25237;SDS011;13185;50.872;5.306;2023-03-12T00:44:55;7.70;;;3.00;;
25237;SDS011;13185;50.872;5.306;2023-03-12T00:47:21;8.00;;;3.23;;
25237;SDS011;13185;50.872;5.306;2023-03-12T00:49:47;12.37;;;3.93;;
25237;SDS011;13185;50.872;5.306;2023-03-12T00:52:12;6.30;;;2.80;;
25237;SDS011;13185;50.872;5.306;2023-03-12T00:54:38;7.33;;;3.07;;
25237;SDS011;13185;50.872;5.306;2023-03-12T00:57:03;8.63;;;2.97;;
25237;SDS011;13185;50.872;5.306;2023-03-12T00:59:29;6.53;;;3.10;;
25237;SDS011;13185;50.872;5.306;2023-03-12T01:01:55;7.77;;;3.53;;
25237;SDS011;13185;50.872;5.306;2023-03-12T01:04:21;6.87;;;2.97;;
25237;SDS011;13185;50.872;5.306;2023-03-12T01:06:47;9.07;;;2.60;;
25237;SDS011;13185;50.872;5.306;2023-03-12T01:09:12;6.77;;;2.90;;
25237;SDS011;13185;50.872;5.306;2023-03-12T01:11:38;8.33;;;2.40;;
25237;SDS011;13185;50.872;5.306;2023-03-12T01:14:04;7.77;;;2.30;;
25237;SDS011;13185;50.872;5.306;2023-03-12T01:16:32;7.97;;;2.67;;
25237;SDS011;13185;50.872;5.306;2023-03-12T01:18:58;6.40;;;2.40;;
25237;SDS011;13185;50.872;5.306;2023-03-12T01:21:25;8.07;;;2.77;;
25237;SDS011;13185;50.872;5.306;2023-03-12T01:23:51;6.27;;;3.33;;
25237;SDS011;13185;50.872;5.306;2023-03-12T01:26:17;6.47;;;2.93;;
25237;SDS011;13185;50.872;5.306;2023-03-12T01:28:43;9.73;;;2.57;;
25237;SDS011;13185;50.872;5.306;2023-03-12T01:31:09;9.60;;;3.10;;
25237;SDS011;13185;50.872;5.306;2023-03-12T01:33:37;6.57;;;2.13;;
25237;SDS011;13185;50.872;5.306;2023-03-12T01:36:03;7.33;;;1.97;;
25237;SDS011;13185;50.872;5.306;2023-03-12T01:38:29;6.43;;;2.13;;
25237;SDS011;13185;50.872;5.306;2023-03-12T01:40:54;11.47;;;2.80;;
25237;SDS011;13185;50.872;5.306;2023-03-12T01:48:39;6.03;;;2.30;;
25237;SDS011;13185;50.872;5.306;2023-03-12T01:51:08;6.23;;;2.90;;
25237;SDS011;13185;50.872;5.306;2023-03-12T01:53:36;5.93;;;2.67;;
25237;SDS011;13185;50.872;5.306;2023-03-12T01:56:03;6.43;;;1.83;;
25237;SDS011;13185;50.872;5.306;2023-03-12T01:58:29;6.57;;;2.00;;
25237;SDS011;13185;50.872;5.306;2023-03-12T02:00:58;7.83;;;2.37;;
25237;SDS011;13185;50.872;5.306;2023-03-12T02:03:27;8.57;;;2.20;;
25237;SDS011;13185;50.872;5.306;2023-03-12T02:05:54;7.97;;;2.13;;
25237;SDS011;13185;50.872;5.306;2023-03-12T02:08:27;4.75;;;1.55;;
25237;SDS011;13185;50.872;5.306;2023-03-12T02:10:53;4.43;;;1.80;;
25237;SDS011;13185;50.872;5.306;2023-03-12T02:13:18;5.33;;;1.90;;
25237;SDS011;13185;50.872;5.306;2023-03-12T02:15:46;5.03;;;2.00;;
25237;SDS011;13185;50.872;5.306;2023-03-12T02:18:14;7.00;;;1.70;;
25237;SDS011;13185;50.872;5.306;2023-03-12T02:20:52;5.73;;;2.03;;
25237;SDS011;13185;50.872;5.306;2023-03-12T02:23:44;5.07;;;1.70;;
25237;SDS011;13185;50.872;5.306;2023-03-12T02:26:19;4.30;;;1.73;;
25237;SDS011;13185;50.872;5.306;2023-03-12T02:28:47;7.97;;;1.57;;
25237;SDS011;13185;50.872;5.306;2023-03-12T02:31:15;5.67;;;1.60;;
25237;SDS011;13185;50.872;5.306;2023-03-12T02:33:45;4.73;;;1.87;;
25237;SDS011;13185;50.872;5.306;2023-03-12T02:36:10;8.80;;;1.80;;
25237;SDS011;13185;50.872;5.306;2023-03-12T02:41:16;8.53;;;1.60;;
25237;SDS011;13185;50.872;5.306;2023-03-12T02:43:47;5.27;;;2.20;;
25237;SDS011;13185;50.872;5.306;2023-03-12T02:46:16;4.33;;;1.40;;
25237;SDS011;13185;50.872;5.306;2023-03-12T02:48:42;5.73;;;1.63;;
25237;SDS011;13185;50.872;5.306;2023-03-12T02:51:07;3.90;;;1.17;;
25237;SDS011;13185;50.872;5.306;2023-03-12T02:53:33;5.10;;;1.40;;
25237;SDS011;13185;50.872;5.306;2023-03-12T02:55:59;4.17;;;1.40;;
25237;SDS011;13185;50.872;5.306;2023-03-12T02:58:24;5.30;;;1.20;;
25237;SDS011;13185;50.872;5.306;2023-03-12T03:00:50;8.73;;;1.60;;
25237;SDS011;13185;50.872;5.306;2023-03-12T03:03:16;6.03;;;1.80;;
25237;SDS011;13185;50.872;5.306;2023-03-12T03:05:41;6.23;;;1.40;;
25237;SDS011;13185;50.872;5.306;2023-03-12T03:08:07;3.85;;;1.30;;
25237;SDS011;13185;50.872;5.306;2023-03-12T03:10:32;6.27;;;1.50;;
25237;SDS011;13185;50.872;5.306;2023-03-12T03:12:58;4.20;;;1.47;;
25237;SDS011;13185;50.872;5.306;2023-03-12T03:15:24;8.43;;;1.23;;
25237;SDS011;13185;50.872;5.306;2023-03-12T03:17:50;5.57;;;1.60;;
25237;SDS011;13185;50.872;5.306;2023-03-12T03:20:15;5.67;;;1.50;;
25237;SDS011;13185;50.872;5.306;2023-03-12T03:22:41;8.63;;;1.83;;
25237;SDS011;13185;50.872;5.306;2023-03-12T03:25:07;6.53;;;1.93;;
25237;SDS011;13185;50.872;5.306;2023-03-12T03:27:34;3.57;;;1.70;;
25237;SDS011;13185;50.872;5.306;2023-03-12T03:30:00;6.73;;;1.77;;
25237;SDS011;13185;50.872;5.306;2023-03-12T03:32:28;7.20;;;3.00;;
25237;SDS011;13185;50.872;5.306;2023-03-12T03:34:54;11.07;;;1.90;;
25237;SDS011;13185;50.872;5.306;2023-03-12T03:37:20;9.37;;;2.20;;
25237;SDS011;13185;50.872;5.306;2023-03-12T03:39:45;6.10;;;1.90;;
25237;SDS011;13185;50.872;5.306;2023-03-12T03:42:11;4.83;;;2.00;;
25237;SDS011;13185;50.872;5.306;2023-03-12T03:44:36;4.73;;;1.87;;
25237;SDS011;13185;50.872;5.306;2023-03-12T03:47:02;6.63;;;1.93;;
25237;SDS011;13185;50.872;5.306;2023-03-12T03:49:27;2.43;;;1.50;;
25237;SDS011;13185;50.872;5.306;2023-03-12T03:51:53;5.90;;;1.57;;
25237;SDS011;13185;50.872;5.306;2023-03-12T03:54:26;7.50;;;2.10;;
25237;SDS011;13185;50.872;5.306;2023-03-12T03:56:52;8.77;;;2.00;;
25237;SDS011;13185;50.872;5.306;2023-03-12T03:59:18;3.43;;;1.67;;
25237;SDS011;13185;50.872;5.306;2023-03-12T04:01:45;3.83;;;2.03;;
25237;SDS011;13185;50.872;5.306;2023-03-12T04:04:10;5.47;;;2.00;;
25237;SDS011;13185;50.872;5.306;2023-03-12T04:06:36;5.20;;;2.17;;
25237;SDS011;13185;50.872;5.306;2023-03-12T04:09:01;6.83;;;2.07;;
25237;SDS011;13185;50.872;5.306;2023-03-12T04:11:29;4.13;;;2.00;;
25237;SDS011;13185;50.872;5.306;2023-03-12T04:13:56;5.00;;;1.90;;
25237;SDS011;13185;50.872;5.306;2023-03-12T04:16:24;8.50;;;2.27;;
25237;SDS011;13185;50.872;5.306;2023-03-12T04:18:52;7.60;;;2.27;;
25237;SDS011;13185;50.872;5.306;2023-03-12T04:21:17;4.73;;;2.00;;
25237;SDS011;13185;50.872;5.306;2023-03-12T04:23:46;7.70;;;1.97;;
25237;SDS011;13185;50.872;5.306;2023-03-12T04:26:13;8.07;;;1.93;;
25237;SDS011;13185;50.872;5.306;2023-03-12T04:28:39;9.47;;;2.80;;
25237;SDS011;13185;50.872;5.306;2023-03-12T04:31:06;11.57;;;2.88;;
25237;SDS011;13185;50.872;5.306;2023-03-12T04:33:38;8.30;;;2.40;;
25237;SDS011;13185;50.872;5.306;2023-03-12T04:36:05;7.07;;;2.60;;
25237;SDS011;13185;50.872;5.306;2023-03-12T04:38:33;4.73;;;2.50;;
25237;SDS011;13185;50.872;5.306;2023-03-12T04:40:59;4.60;;;2.40;;
25237;SDS011;13185;50.872;5.306;2023-03-12T04:43:26;7.53;;;2.83;;
25237;SDS011;13185;50.872;5.306;2023-03-12T04:45:53;4.85;;;2.20;;
25237;SDS011;13185;50.872;5.306;2023-03-12T04:48:19;4.80;;;2.13;;
25237;SDS011;13185;50.872;5.306;2023-03-12T04:50:46;6.93;;;2.93;;
25237;SDS011;13185;50.872;5.306;2023-03-12T04:53:12;6.27;;;2.77;;
25237;SDS011;13185;50.872;5.306;2023-03-12T04:55:37;6.90;;;2.17;;
25237;SDS011;13185;50.872;5.306;2023-03-12T04:58:03;6.70;;;2.87;;
25237;SDS011;13185;50.872;5.306;2023-03-12T05:00:29;8.27;;;3.03;;
25237;SDS011;13185;50.872;5.306;2023-03-12T05:02:55;8.70;;;2.40;;
25237;SDS011;13185;50.872;5.306;2023-03-12T05:05:20;6.43;;;2.13;;
25237;SDS011;13185;50.872;5.306;2023-03-12T05:07:46;7.37;;;2.43;;
25237;SDS011;13185;50.872;5.306;2023-03-12T05:10:12;6.73;;;3.20;;
25237;SDS011;13185;50.872;5.306;2023-03-12T05:12:37;9.10;;;2.50;;
25237;SDS011;13185;50.872;5.306;2023-03-12T05:15:03;8.73;;;2.87;;
25237;SDS011;13185;50.872;5.306;2023-03-12T05:17:29;7.13;;;2.60;;
25237;SDS011;13185;50.872;5.306;2023-03-12T05:19:55;8.03;;;2.43;;
25237;SDS011;13185;50.872;5.306;2023-03-12T05:22:20;6.33;;;2.60;;
25237;SDS011;13185;50.872;5.306;2023-03-12T05:24:46;5.37;;;2.53;;
25237;SDS011;13185;50.872;5.306;2023-03-12T05:27:11;5.37;;;2.43;;
25237;SDS011;13185;50.872;5.306;2023-03-12T05:29:37;7.23;;;2.77;;
25237;SDS011;13185;50.872;5.306;2023-03-12T05:32:03;6.53;;;2.88;;
25237;SDS011;13185;50.872;5.306;2023-03-12T05:34:32;6.77;;;2.50;;
25237;SDS011;13185;50.872;5.306;2023-03-12T05:36:58;7.97;;;2.83;;
25237;SDS011;13185;50.872;5.306;2023-03-12T05:39:26;8.70;;;2.72;;
25237;SDS011;13185;50.872;5.306;2023-03-12T05:41:54;4.83;;;2.50;;
25237;SDS011;13185;50.872;5.306;2023-03-12T05:44:22;7.13;;;2.37;;
25237;SDS011;13185;50.872;5.306;2023-03-12T05:46:52;7.27;;;2.33;;
25237;SDS011;13185;50.872;5.306;2023-03-12T05:49:22;5.07;;;3.20;;
25237;SDS011;13185;50.872;5.306;2023-03-12T05:51:48;5.33;;;2.43;;
25237;SDS011;13185;50.872;5.306;2023-03-12T05:54:15;7.53;;;2.73;;
25237;SDS011;13185;50.872;5.306;2023-03-12T05:56:41;6.13;;;2.53;;
25237;SDS011;13185;50.872;5.306;2023-03-12T05:59:07;5.27;;;2.40;;
25237;SDS011;13185;50.872;5.306;2023-03-12T06:01:35;4.37;;;2.60;;
25237;SDS011;13185;50.872;5.306;2023-03-12T06:04:03;4.17;;;2.10;;
25237;SDS011;13185;50.872;5.306;2023-03-12T06:06:29;11.73;;;2.80;;
25237;SDS011;13185;50.872;5.306;2023-03-12T06:08:56;3.42;;;1.88;;
25237;SDS011;13185;50.872;5.306;2023-03-12T06:11:22;4.57;;;2.45;;
25237;SDS011;13185;50.872;5.306;2023-03-12T06:13:47;8.48;;;2.95;;
25237;SDS011;13185;50.872;5.306;2023-03-12T06:16:17;6.83;;;3.10;;
25237;SDS011;13185;50.872;5.306;2023-03-12T06:18:44;4.77;;;2.70;;
25237;SDS011;13185;50.872;5.306;2023-03-12T06:21:11;9.75;;;2.80;;
25237;SDS011;13185;50.872;5.306;2023-03-12T06:23:43;6.57;;;2.50;;
25237;SDS011;13185;50.872;5.306;2023-03-12T06:26:13;3.90;;;2.10;;
25237;SDS011;13185;50.872;5.306;2023-03-12T06:28:39;4.63;;;2.42;;
25237;SDS011;13185;50.872;5.306;2023-03-12T06:31:05;5.17;;;2.73;;
25237;SDS011;13185;50.872;5.306;2023-03-12T06:33:31;5.17;;;2.77;;
25237;SDS011;13185;50.872;5.306;2023-03-12T06:35:58;4.93;;;3.05;;
25237;SDS011;13185;50.872;5.306;2023-03-12T06:38:25;5.00;;;2.77;;
25237;SDS011;13185;50.872;5.306;2023-03-12T06:40:58;4.20;;;2.57;;
25237;SDS011;13185;50.872;5.306;2023-03-12T06:43:26;7.10;;;3.00;;
25237;SDS011;13185;50.872;5.306;2023-03-12T06:45:54;6.95;;;2.75;;
25237;SDS011;13185;50.872;5.306;2023-03-12T06:48:21;5.45;;;3.17;;
25237;SDS011;13185;50.872;5.306;2023-03-12T06:50:47;3.67;;;2.90;;
25237;SDS011;13185;50.872;5.306;2023-03-12T06:53:13;8.63;;;3.60;;
25237;SDS011;13185;50.872;5.306;2023-03-12T06:55:38;6.87;;;2.93;;
25237;SDS011;13185;50.872;5.306;2023-03-12T06:58:04;6.07;;;3.70;;
25237;SDS011;13185;50.872;5.306;2023-03-12T07:00:30;7.18;;;3.40;;
25237;SDS011;13185;50.872;5.306;2023-03-12T07:02:56;6.10;;;3.88;;
25237;SDS011;13185;50.872;5.306;2023-03-12T07:05:22;5.72;;;3.17;;
25237;SDS011;13185;50.872;5.306;2023-03-12T07:07:48;4.78;;;3.38;;
25237;SDS011;13185;50.872;5.306;2023-03-12T07:10:14;5.05;;;3.20;;
25237;SDS011;13185;50.872;5.306;2023-03-12T07:12:40;7.60;;;4.00;;
25237;SDS011;13185;50.872;5.306;2023-03-12T07:15:05;8.43;;;3.95;;
25237;SDS011;13185;50.872;5.306;2023-03-12T07:17:31;5.10;;;3.67;;
25237;SDS011;13185;50.872;5.306;2023-03-12T07:19:57;8.05;;;4.00;;
25237;SDS011;13185;50.872;5.306;2023-03-12T07:22:22;5.55;;;4.53;;
25237;SDS011;13185;50.872;5.306;2023-03-12T07:24:50;6.03;;;4.57;;
25237;SDS011;13185;50.872;5.306;2023-03-12T07:27:16;6.65;;;4.63;;
25237;SDS011;13185;50.872;5.306;2023-03-12T07:29:42;6.93;;;4.38;;
25237;SDS011;13185;50.872;5.306;2023-03-12T07:32:08;7.30;;;4.38;;
25237;SDS011;13185;50.872;5.306;2023-03-12T07:34:33;8.32;;;4.85;;
25237;SDS011;13185;50.872;5.306;2023-03-12T07:36:59;8.82;;;4.47;;
25237;SDS011;13185;50.872;5.306;2023-03-12T07:39:24;6.97;;;4.95;;
25237;SDS011;13185;50.872;5.306;2023-03-12T07:41:50;8.32;;;4.97;;
25237;SDS011;13185;50.872;5.306;2023-03-12T07:44:15;7.65;;;4.93;;
25237;SDS011;13185;50.872;5.306;2023-03-12T07:46:41;7.20;;;5.32;;
25237;SDS011;13185;50.872;5.306;2023-03-12T07:49:06;8.05;;;5.50;;
25237;SDS011;13185;50.872;5.306;2023-03-12T07:51:32;9.45;;;5.60;;
25237;SDS011;13185;50.872;5.306;2023-03-12T07:53:57;8.43;;;5.38;;
25237;SDS011;13185;50.872;5.306;2023-03-12T07:56:23;8.10;;;5.72;;
25237;SDS011;13185;50.872;5.306;2023-03-12T07:58:48;7.60;;;4.88;;
25237;SDS011;13185;50.872;5.306;2023-03-12T08:01:14;6.53;;;5.18;;
25237;SDS011;13185;50.872;5.306;2023-03-12T08:03:40;8.48;;;5.60;;
25237;SDS011;13185;50.872;5.306;2023-03-12T08:06:05;9.48;;;5.72;;
25237;SDS011;13185;50.872;5.306;2023-03-12T08:08:31;8.55;;;5.00;;
25237;SDS011;13185;50.872;5.306;2023-03-12T08:10:58;10.88;;;5.03;;
25237;SDS011;13185;50.872;5.306;2023-03-12T08:13:24;9.23;;;5.82;;
25237;SDS011;13185;50.872;5.306;2023-03-12T08:15:51;10.85;;;6.07;;
25237;SDS011;13185;50.872;5.306;2023-03-12T08:18:17;8.60;;;5.57;;
25237;SDS011;13185;50.872;5.306;2023-03-12T08:20:43;6.97;;;5.25;;
25237;SDS011;13185;50.872;5.306;2023-03-12T08:23:09;6.70;;;5.00;;
25237;SDS011;13185;50.872;5.306;2023-03-12T08:25:35;7.50;;;5.25;;
25237;SDS011;13185;50.872;5.306;2023-03-12T08:28:04;7.95;;;5.10;;
25237;SDS011;13185;50.872;5.306;2023-03-12T08:30:30;7.80;;;5.10;;
25237;SDS011;13185;50.872;5.306;2023-03-12T08:32:56;9.93;;;5.18;;
25237;SDS011;13185;50.872;5.306;2023-03-12T08:35:22;6.80;;;4.40;;
25237;SDS011;13185;50.872;5.306;2023-03-12T08:37:48;9.90;;;4.88;;
25237;SDS011;13185;50.872;5.306;2023-03-12T08:40:13;9.43;;;4.68;;
25237;SDS011;13185;50.872;5.306;2023-03-12T08:42:39;8.88;;;4.38;;
25237;SDS011;13185;50.872;5.306;2023-03-12T08:45:06;8.55;;;4.45;;
25237;SDS011;13185;50.872;5.306;2023-03-12T08:47:32;12.30;;;4.85;;
25237;SDS011;13185;50.872;5.306;2023-03-12T08:49:58;8.48;;;4.57;;
25237;SDS011;13185;50.872;5.306;2023-03-12T08:52:23;10.57;;;4.50;;
25237;SDS011;13185;50.872;5.306;2023-03-12T08:54:49;10.43;;;5.00;;
25237;SDS011;13185;50.872;5.306;2023-03-12T08:57:14;11.00;;;4.95;;
25237;SDS011;13185;50.872;5.306;2023-03-12T08:59:40;10.38;;;4.60;;
25237;SDS011;13185;50.872;5.306;2023-03-12T09:02:06;7.35;;;4.43;;
25237;SDS011;13185;50.872;5.306;2023-03-12T09:04:31;12.55;;;5.35;;
25237;SDS011;13185;50.872;5.306;2023-03-12T09:06:59;10.88;;;5.10;;
25237;SDS011;13185;50.872;5.306;2023-03-12T09:09:25;12.77;;;5.35;;
25237;SDS011;13185;50.872;5.306;2023-03-12T09:11:50;12.68;;;5.65;;
25237;SDS011;13185;50.872;5.306;2023-03-12T09:14:16;18.95;;;6.18;;
25237;SDS011;13185;50.872;5.306;2023-03-12T09:16:41;13.32;;;5.72;;
25237;SDS011;13185;50.872;5.306;2023-03-12T09:19:07;20.20;;;6.05;;
25237;SDS011;13185;50.872;5.306;2023-03-12T09:21:32;16.35;;;6.35;;
25237;SDS011;13185;50.872;5.306;2023-03-12T09:23:58;23.75;;;6.50;;
25237;SDS011;13185;50.872;5.306;2023-03-12T09:26:23;17.58;;;7.50;;
25237;SDS011;13185;50.872;5.306;2023-03-12T09:28:49;27.77;;;9.02;;
25237;SDS011;13185;50.872;5.306;2023-03-12T09:31:15;26.23;;;8.60;;
25237;SDS011;13185;50.872;5.306;2023-03-12T09:33:40;24.55;;;8.45;;
25237;SDS011;13185;50.872;5.306;2023-03-12T09:36:06;32.70;;;9.18;;
25237;SDS011;13185;50.872;5.306;2023-03-12T09:38:32;31.77;;;9.70;;
25237;SDS011;13185;50.872;5.306;2023-03-12T09:40:59;33.67;;;9.73;;
25237;SDS011;13185;50.872;5.306;2023-03-12T09:43:40;32.13;;;10.20;;
25237;SDS011;13185;50.872;5.306;2023-03-12T09:49:08;31.15;;;10.82;;
25237;SDS011;13185;50.872;5.306;2023-03-12T09:51:40;35.95;;;9.60;;
25237;SDS011;13185;50.872;5.306;2023-03-12T09:57:02;30.17;;;9.05;;
25237;SDS011;13185;50.872;5.306;2023-03-12T09:59:33;32.50;;;9.38;;
25237;SDS011;13185;50.872;5.306;2023-03-12T10:02:01;39.17;;;10.95;;
25237;SDS011;13185;50.872;5.306;2023-03-12T10:07:39;33.95;;;8.57;;
25237;SDS011;13185;50.872;5.306;2023-03-12T10:26:58;30.63;;;6.50;;
25237;SDS011;13185;50.872;5.306;2023-03-12T10:31:56;30.17;;;6.00;;
25237;SDS011;13185;50.872;5.306;2023-03-12T10:40:34;25.20;;;6.68;;
25237;SDS011;13185;50.872;5.306;2023-03-12T10:43:03;30.83;;;5.13;;
25237;SDS011;13185;50.872;5.306;2023-03-12T10:48:19;20.73;;;5.38;;
25237;SDS011;13185;50.872;5.306;2023-03-12T10:50:59;27.08;;;5.07;;
25237;SDS011;13185;50.872;5.306;2023-03-12T10:53:28;22.17;;;4.88;;
25237;SDS011;13185;50.872;5.306;2023-03-12T10:56:10;24.27;;;5.47;;
25237;SDS011;13185;50.872;5.306;2023-03-12T10:58:41;30.13;;;6.43;;
25237;SDS011;13185;50.872;5.306;2023-03-12T11:01:22;27.70;;;6.05;;
25237;SDS011;13185;50.872;5.306;2023-03-12T11:03:50;33.05;;;6.72;;
25237;SDS011;13185;50.872;5.306;2023-03-12T11:06:20;27.55;;;6.13;;
25237;SDS011;13185;50.872;5.306;2023-03-12T11:11:39;22.17;;;5.47;;
25237;SDS011;13185;50.872;5.306;2023-03-12T11:14:06;31.80;;;4.38;;
25237;SDS011;13185;50.872;5.306;2023-03-12T11:16:31;28.05;;;5.05;;
25237;SDS011;13185;50.872;5.306;2023-03-12T11:21:25;26.52;;;5.50;;
25237;SDS011;13185;50.872;5.306;2023-03-12T11:26:24;24.83;;;5.47;;
25237;SDS011;13185;50.872;5.306;2023-03-12T11:28:58;31.17;;;6.10;;
25237;SDS011;13185;50.872;5.306;2023-03-12T11:31:28;27.88;;;5.75;;
25237;SDS011;13185;50.872;5.306;2023-03-12T11:34:02;29.23;;;5.80;;
25237;SDS011;13185;50.872;5.306;2023-03-12T11:53:04;23.52;;;4.38;;
25237;SDS011;13185;50.872;5.306;2023-03-12T11:58:44;28.38;;;5.25;;
25237;SDS011;13185;50.872;5.306;2023-03-12T12:25:45;25.00;;;4.65;;
25237;SDS011;13185;50.872;5.306;2023-03-12T12:30:50;26.92;;;4.93;;
25237;SDS011;13185;50.872;5.306;2023-03-12T12:36:08;22.17;;;5.28;;
25237;SDS011;13185;50.872;5.306;2023-03-12T12:38:38;26.80;;;5.18;;
25237;SDS011;13185;50.872;5.306;2023-03-12T12:43:37;26.13;;;5.75;;
25237;SDS011;13185;50.872;5.306;2023-03-12T12:46:15;25.85;;;5.30;;
25237;SDS011;13185;50.872;5.306;2023-03-12T12:48:50;22.77;;;4.60;;
25237;SDS011;13185;50.872;5.306;2023-03-12T12:51:20;27.80;;;5.22;;
25237;SDS011;13185;50.872;5.306;2023-03-12T12:56:39;28.27;;;5.05;;
25237;SDS011;13185;50.872;5.306;2023-03-12T13:01:58;21.40;;;4.68;;
25237;SDS011;13185;50.872;5.306;2023-03-12T13:07:00;29.23;;;5.22;;
25237;SDS011;13185;50.872;5.306;2023-03-12T13:09:47;24.48;;;4.72;;
25237;SDS011;13185;50.872;5.306;2023-03-12T13:12:19;21.40;;;5.15;;
25237;SDS011;13185;50.872;5.306;2023-03-12T13:14:51;25.30;;;4.97;;
25237;SDS011;13185;50.872;5.306;2023-03-12T13:19:53;27.90;;;5.90;;
25237;SDS011;13185;50.872;5.306;2023-03-12T13:25:07;29.80;;;5.13;;
25237;SDS011;13185;50.872;5.306;2023-03-12T13:27:48;27.02;;;6.05;;
25237;SDS011;13185;50.872;5.306;2023-03-12T13:43:00;29.13;;;4.82;;
25237;SDS011;13185;50.872;5.306;2023-03-12T13:45:32;28.08;;;6.20;;
25237;SDS011;13185;50.872;5.306;2023-03-12T13:48:04;32.30;;;5.07;;
25237;SDS011;13185;50.872;5.306;2023-03-12T13:50:40;29.23;;;6.43;;
25237;SDS011;13185;50.872;5.306;2023-03-12T13:53:19;27.55;;;6.43;;
25237;SDS011;13185;50.872;5.306;2023-03-12T13:56:17;26.40;;;4.90;;
25237;SDS011;13185;50.872;5.306;2023-03-12T13:58:55;24.05;;;4.45;;
25237;SDS011;13185;50.872;5.306;2023-03-12T14:01:27;25.23;;;5.68;;
25237;SDS011;13185;50.872;5.306;2023-03-12T14:03:56;22.10;;;4.32;;
25237;SDS011;13185;50.872;5.306;2023-03-12T14:06:26;19.65;;;5.07;;
25237;SDS011;13185;50.872;5.306;2023-03-12T14:17:13;32.03;;;5.47;;
25237;SDS011;13185;50.872;5.306;2023-03-12T14:19:46;14.45;;;3.08;;
25237;SDS011;13185;50.872;5.306;2023-03-12T14:22:15;20.95;;;4.95;;
25237;SDS011;13185;50.872;5.306;2023-03-12T14:24:47;26.27;;;4.63;;
25237;SDS011;13185;50.872;5.306;2023-03-12T14:27:20;27.25;;;5.85;;
25237;SDS011;13185;50.872;5.306;2023-03-12T14:32:24;24.40;;;4.87;;
25237;SDS011;13185;50.872;5.306;2023-03-12T14:34:54;25.27;;;4.38;;
25237;SDS011;13185;50.872;5.306;2023-03-12T14:37:31;24.70;;;4.05;;
25237;SDS011;13185;50.872;5.306;2023-03-12T14:40:17;27.27;;;4.88;;
25237;SDS011;13185;50.872;5.306;2023-03-12T14:42:46;23.90;;;5.65;;
25237;SDS011;13185;50.872;5.306;2023-03-12T14:45:13;23.67;;;4.88;;
25237;SDS011;13185;50.872;5.306;2023-03-12T14:47:43;25.10;;;4.07;;
25237;SDS011;13185;50.872;5.306;2023-03-12T14:50:17;23.52;;;4.57;;
25237;SDS011;13185;50.872;5.306;2023-03-12T14:52:47;23.40;;;5.15;;
25237;SDS011;13185;50.872;5.306;2023-03-12T14:55:14;22.40;;;4.43;;
25237;SDS011;13185;50.872;5.306;2023-03-12T14:57:46;22.98;;;5.25;;
25237;SDS011;13185;50.872;5.306;2023-03-12T15:00:21;23.80;;;4.68;;
25237;SDS011;13185;50.872;5.306;2023-03-12T15:02:51;22.55;;;4.47;;
25237;SDS011;13185;50.872;5.306;2023-03-12T15:05:20;33.75;;;6.78;;
25237;SDS011;13185;50.872;5.306;2023-03-12T15:07:46;22.35;;;3.90;;
25237;SDS011;13185;50.872;5.306;2023-03-12T15:12:50;24.20;;;4.43;;
25237;SDS011;13185;50.872;5.306;2023-03-12T15:15:39;24.98;;;4.85;;
25237;SDS011;13185;50.872;5.306;2023-03-12T15:18:06;23.30;;;4.18;;
25237;SDS011;13185;50.872;5.306;2023-03-12T15:20:37;19.17;;;3.47;;
25237;SDS011;13185;50.872;5.306;2023-03-12T15:23:04;17.38;;;4.15;;
25237;SDS011;13185;50.872;5.306;2023-03-12T15:25:34;20.58;;;4.78;;
25237;SDS011;13185;50.872;5.306;2023-03-12T15:28:02;18.92;;;3.60;;
25237;SDS011;13185;50.872;5.306;2023-03-12T15:31:07;25.98;;;4.22;;
25237;SDS011;13185;50.872;5.306;2023-03-12T15:33:34;22.08;;;3.85;;
25237;SDS011;13185;50.872;5.306;2023-03-12T15:36:01;18.90;;;2.95;;
25237;SDS011;13185;50.872;5.306;2023-03-12T15:38:27;24.38;;;4.50;;
25237;SDS011;13185;50.872;5.306;2023-03-12T15:40:57;18.13;;;3.65;;
25237;SDS011;13185;50.872;5.306;2023-03-12T15:43:30;19.90;;;3.83;;
25237;SDS011;13185;50.872;5.306;2023-03-12T15:46:00;21.80;;;4.05;;
25237;SDS011;13185;50.872;5.306;2023-03-12T15:48:28;12.27;;;3.08;;
25237;SDS011;13185;50.872;5.306;2023-03-12T15:50:57;19.00;;;3.05;;
25237;SDS011;13185;50.872;5.306;2023-03-12T15:53:25;17.20;;;4.38;;
25237;SDS011;13185;50.872;5.306;2023-03-12T15:58:44;20.35;;;3.72;;
25237;SDS011;13185;50.872;5.306;2023-03-12T16:04:00;23.55;;;4.07;;
25237;SDS011;13185;50.872;5.306;2023-03-12T16:06:26;24.65;;;4.93;;
25237;SDS011;13185;50.872;5.306;2023-03-12T16:08:54;20.83;;;3.83;;
25237;SDS011;13185;50.872;5.306;2023-03-12T16:11:23;25.05;;;5.03;;
25237;SDS011;13185;50.872;5.306;2023-03-12T16:13:53;22.30;;;4.22;;
25237;SDS011;13185;50.872;5.306;2023-03-12T16:16:28;21.30;;;5.70;;
25237;SDS011;13185;50.872;5.306;2023-03-12T16:18:53;23.50;;;4.25;;
25237;SDS011;13185;50.872;5.306;2023-03-12T16:21:19;19.13;;;3.63;;
25237;SDS011;13185;50.872;5.306;2023-03-12T16:23:44;20.98;;;3.95;;
25237;SDS011;13185;50.872;5.306;2023-03-12T16:26:10;22.55;;;4.30;;
25237;SDS011;13185;50.872;5.306;2023-03-12T16:28:38;20.17;;;4.55;;
25237;SDS011;13185;50.872;5.306;2023-03-12T16:31:09;21.13;;;3.90;;
25237;SDS011;13185;50.872;5.306;2023-03-12T16:33:38;18.83;;;3.88;;
25237;SDS011;13185;50.872;5.306;2023-03-12T16:36:11;24.17;;;4.55;;
25237;SDS011;13185;50.872;5.306;2023-03-12T16:38:38;17.38;;;3.70;;
25237;SDS011;13185;50.872;5.306;2023-03-12T16:41:03;24.92;;;3.95;;
25237;SDS011;13185;50.872;5.306;2023-03-12T16:43:29;20.38;;;3.30;;
25237;SDS011;13185;50.872;5.306;2023-03-12T16:45:59;21.33;;;3.70;;
25237;SDS011;13185;50.872;5.306;2023-03-12T16:48:25;19.42;;;3.88;;
25237;SDS011;13185;50.872;5.306;2023-03-12T16:50:51;19.88;;;3.25;;
25237;SDS011;13185;50.872;5.306;2023-03-12T16:53:19;20.20;;;4.03;;
25237;SDS011;13185;50.872;5.306;2023-03-12T16:55:46;27.40;;;4.57;;
25237;SDS011;13185;50.872;5.306;2023-03-12T16:58:15;18.80;;;3.42;;
25237;SDS011;13185;50.872;5.306;2023-03-12T17:00:42;23.38;;;5.03;;
25237;SDS011;13185;50.872;5.306;2023-03-12T17:03:15;19.50;;;3.97;;
25237;SDS011;13185;50.872;5.306;2023-03-12T17:05:44;18.00;;;3.50;;
25237;SDS011;13185;50.872;5.306;2023-03-12T17:08:10;17.27;;;3.55;;
25237;SDS011;13185;50.872;5.306;2023-03-12T17:10:35;23.52;;;4.30;;
25237;SDS011;13185;50.872;5.306;2023-03-12T17:13:01;18.88;;;3.88;;
25237;SDS011;13185;50.872;5.306;2023-03-12T17:15:27;18.00;;;3.17;;